sim
Sign-in with your pilot id or email,
or register
Callsign
Passwort

Schedule Details

Flight Number: OEF9008
Departure: Mumbai Chhatrapati Shivaji International Airport (VABB) at 15:40
Arrival: Dubai International Airport (OMDB) at 18:30

Weather Information
Getting current METAR information for VABB 100000Z 12003KT 2500 HZ NSC 26/20 Q1012 NOSIG
Getting current METAR information for OMDB 100000Z 08005KT 050V110 CAVOK 23/18 Q1015 NOSIG

Schedule Frequency

Route Map